EKRK

Copenhagen Roskilde Airport

Copenhagen, Denmark
METAR EKRK 222120Z AUTO 13011KT 6000NDV NCD 07/06 Q1011
Observed Flight Rules
Apr-22 @ 21:20 UTC (38 minutes ago)
Wind Clouds
130° at 11 knots
  • Clear skies
Temperatures Readings
Current 7°C / 45°F
Dewpoint 6°C / 43°F
Humidity 93%
Altimeter 29.85" Hg
Pressure 1011 hPa
Elevation 44
METAR EKRK 222120Z AUTO 13011KT 6000NDV NCD 07/06 Q1011
Observed Flight Rules
Apr-22 @ 21:20 UTC
(38 minutes ago)
Wind
130° at 11 knots
Clouds
  • Clear skies
Temperature Dewpoint
7°C / 45°F 6°C / 43°F
Humidity Altimeter Pressure
93% 29.85" Hg 1011 hPa